<?xml version="1.0" encoding="UTF-8" standalone="no" ?>
<gpx xmlns="http://www.topografix.com/GPX/1/1" xmlns:xsi="http://www.w3.org/2001/XMLSchema-instance" xsi:schemaLocation="http://www.topografix.com/GPX/1/1 http://www.topografix.com/GPX/1/1/gpx.xsd" version="1.1" creator="VisuGPX - https://www.visugpx.com">
  <metadata>
    <name>Pointe de Chalune</name>
    <desc><![CDATA[grp_trc:]]></desc>
  </metadata>
  <trk>
    <name><![CDATA[Pointe de Chalune_1]]></name>
    <trkseg>
      <trkpt lat="46.16385" lon="6.5524">
        <ele>1434</ele>
        <time>2024-02-24T08:29:02Z</time>
      </trkpt>
      <trkpt lat="46.16387" lon="6.55242">
        <ele>1443</ele>
        <time>2024-02-24T08:42:57Z</time>
      </trkpt>
      <trkpt lat="46.16396" lon="6.55245">
        <ele>1442</ele>
        <time>2024-02-24T08:43:57Z</time>
      </trkpt>
      <trkpt lat="46.16415" lon="6.55249">
        <ele>1434</ele>
        <time>2024-02-24T08:44:16Z</time>
      </trkpt>
      <trkpt lat="46.16425" lon="6.55247">
        <ele>1435</ele>
        <time>2024-02-24T08:44:25Z</time>
      </trkpt>
      <trkpt lat="46.16455" lon="6.55252">
        <ele>1435</ele>
        <time>2024-02-24T08:44:58Z</time>
      </trkpt>
      <trkpt lat="46.16464" lon="6.55254">
        <ele>1435</ele>
        <time>2024-02-24T08:45:11Z</time>
      </trkpt>
      <trkpt lat="46.16473" lon="6.55255">
        <ele>1435</ele>
        <time>2024-02-24T08:45:20Z</time>
      </trkpt>
      <trkpt lat="46.16482" lon="6.55259">
        <ele>1438</ele>
        <time>2024-02-24T08:45:30Z</time>
      </trkpt>
      <trkpt lat="46.1649" lon="6.55267">
        <ele>1436</ele>
        <time>2024-02-24T08:45:42Z</time>
      </trkpt>
      <trkpt lat="46.16517" lon="6.55279">
        <ele>1431</ele>
        <time>2024-02-24T08:46:16Z</time>
      </trkpt>
      <trkpt lat="46.16526" lon="6.55286">
        <ele>1429</ele>
        <time>2024-02-24T08:46:28Z</time>
      </trkpt>
      <trkpt lat="46.16532" lon="6.55297">
        <ele>1431</ele>
        <time>2024-02-24T08:46:39Z</time>
      </trkpt>
      <trkpt lat="46.16538" lon="6.55308">
        <ele>1434</ele>
        <time>2024-02-24T08:46:49Z</time>
      </trkpt>
      <trkpt lat="46.16546" lon="6.55317">
        <ele>1439</ele>
        <time>2024-02-24T08:46:58Z</time>
      </trkpt>
      <trkpt lat="46.16554" lon="6.55326">
        <ele>1440</ele>
        <time>2024-02-24T08:47:09Z</time>
      </trkpt>
      <trkpt lat="46.16562" lon="6.55333">
        <ele>1441</ele>
        <time>2024-02-24T08:47:19Z</time>
      </trkpt>
      <trkpt lat="46.16581" lon="6.55344">
        <ele>1443</ele>
        <time>2024-02-24T08:47:42Z</time>
      </trkpt>
      <trkpt lat="46.16588" lon="6.55353">
        <ele>1442</ele>
        <time>2024-02-24T08:47:53Z</time>
      </trkpt>
      <trkpt lat="46.16603" lon="6.55374">
        <ele>1441</ele>
        <time>2024-02-24T08:48:12Z</time>
      </trkpt>
      <trkpt lat="46.16629" lon="6.55397">
        <ele>1441</ele>
        <time>2024-02-24T08:48:48Z</time>
      </trkpt>
      <trkpt lat="46.16633" lon="6.5541">
        <ele>1442</ele>
        <time>2024-02-24T08:48:56Z</time>
      </trkpt>
      <trkpt lat="46.1664" lon="6.5542">
        <ele>1444</ele>
        <time>2024-02-24T08:49:08Z</time>
      </trkpt>
      <trkpt lat="46.16648" lon="6.5543">
        <ele>1445</ele>
        <time>2024-02-24T08:49:20Z</time>
      </trkpt>
      <trkpt lat="46.16654" lon="6.55441">
        <ele>1447</ele>
        <time>2024-02-24T08:49:30Z</time>
      </trkpt>
      <trkpt lat="46.16659" lon="6.55454">
        <ele>1448</ele>
        <time>2024-02-24T08:49:39Z</time>
      </trkpt>
      <trkpt lat="46.16666" lon="6.55465">
        <ele>1450</ele>
        <time>2024-02-24T08:49:50Z</time>
      </trkpt>
      <trkpt lat="46.16691" lon="6.55492">
        <ele>1449</ele>
        <time>2024-02-24T08:50:25Z</time>
      </trkpt>
      <trkpt lat="46.16709" lon="6.55528">
        <ele>1450</ele>
        <time>2024-02-24T08:50:55Z</time>
      </trkpt>
      <trkpt lat="46.16727" lon="6.55566">
        <ele>1452</ele>
        <time>2024-02-24T08:51:28Z</time>
      </trkpt>
      <trkpt lat="46.16733" lon="6.55578">
        <ele>1454</ele>
        <time>2024-02-24T08:51:41Z</time>
      </trkpt>
      <trkpt lat="46.16743" lon="6.55605">
        <ele>1458</ele>
        <time>2024-02-24T08:52:03Z</time>
      </trkpt>
      <trkpt lat="46.1675" lon="6.55616">
        <ele>1460</ele>
        <time>2024-02-24T08:52:17Z</time>
      </trkpt>
      <trkpt lat="46.16755" lon="6.55627">
        <ele>1460</ele>
        <time>2024-02-24T08:52:28Z</time>
      </trkpt>
      <trkpt lat="46.16761" lon="6.5564">
        <ele>1457</ele>
        <time>2024-02-24T08:52:39Z</time>
      </trkpt>
      <trkpt lat="46.16775" lon="6.55677">
        <ele>1459</ele>
        <time>2024-02-24T08:53:12Z</time>
      </trkpt>
      <trkpt lat="46.1679" lon="6.55697">
        <ele>1462</ele>
        <time>2024-02-24T08:53:33Z</time>
      </trkpt>
      <trkpt lat="46.16794" lon="6.55712">
        <ele>1463</ele>
        <time>2024-02-24T08:53:42Z</time>
      </trkpt>
      <trkpt lat="46.16799" lon="6.55725">
        <ele>1464</ele>
        <time>2024-02-24T08:53:53Z</time>
      </trkpt>
      <trkpt lat="46.16805" lon="6.55737">
        <ele>1465</ele>
        <time>2024-02-24T08:54:05Z</time>
      </trkpt>
      <trkpt lat="46.16813" lon="6.55747">
        <ele>1467</ele>
        <time>2024-02-24T08:54:17Z</time>
      </trkpt>
      <trkpt lat="46.16828" lon="6.55785">
        <ele>1467</ele>
        <time>2024-02-24T08:54:51Z</time>
      </trkpt>
      <trkpt lat="46.16832" lon="6.55799">
        <ele>1463</ele>
        <time>2024-02-24T08:55:01Z</time>
      </trkpt>
      <trkpt lat="46.16836" lon="6.55812">
        <ele>1462</ele>
        <time>2024-02-24T08:55:13Z</time>
      </trkpt>
      <trkpt lat="46.16844" lon="6.55856">
        <ele>1460</ele>
        <time>2024-02-24T08:55:49Z</time>
      </trkpt>
      <trkpt lat="46.16855" lon="6.55898">
        <ele>1460</ele>
        <time>2024-02-24T08:56:20Z</time>
      </trkpt>
      <trkpt lat="46.16865" lon="6.55942">
        <ele>1463</ele>
        <time>2024-02-24T08:56:56Z</time>
      </trkpt>
      <trkpt lat="46.16868" lon="6.55957">
        <ele>1464</ele>
        <time>2024-02-24T08:57:08Z</time>
      </trkpt>
      <trkpt lat="46.16875" lon="6.55985">
        <ele>1467</ele>
        <time>2024-02-24T08:57:31Z</time>
      </trkpt>
      <trkpt lat="46.16881" lon="6.56014">
        <ele>1470</ele>
        <time>2024-02-24T08:57:54Z</time>
      </trkpt>
      <trkpt lat="46.16879" lon="6.56027">
        <ele>1469</ele>
        <time>2024-02-24T08:58:05Z</time>
      </trkpt>
      <trkpt lat="46.16876" lon="6.56055">
        <ele>1468</ele>
        <time>2024-02-24T08:58:26Z</time>
      </trkpt>
      <trkpt lat="46.16864" lon="6.56082">
        <ele>1469</ele>
        <time>2024-02-24T08:58:48Z</time>
      </trkpt>
      <trkpt lat="46.1686" lon="6.56095">
        <ele>1471</ele>
        <time>2024-02-24T08:58:56Z</time>
      </trkpt>
      <trkpt lat="46.16844" lon="6.56134">
        <ele>1475</ele>
        <time>2024-02-24T08:59:27Z</time>
      </trkpt>
      <trkpt lat="46.16839" lon="6.56146">
        <ele>1476</ele>
        <time>2024-02-24T08:59:37Z</time>
      </trkpt>
      <trkpt lat="46.16829" lon="6.56173">
        <ele>1477</ele>
        <time>2024-02-24T09:00:02Z</time>
      </trkpt>
      <trkpt lat="46.16814" lon="6.5621">
        <ele>1479</ele>
        <time>2024-02-24T09:00:35Z</time>
      </trkpt>
      <trkpt lat="46.16808" lon="6.56222">
        <ele>1482</ele>
        <time>2024-02-24T09:00:44Z</time>
      </trkpt>
      <trkpt lat="46.16804" lon="6.56235">
        <ele>1485</ele>
        <time>2024-02-24T09:00:51Z</time>
      </trkpt>
      <trkpt lat="46.16786" lon="6.56251">
        <ele>1488</ele>
        <time>2024-02-24T09:01:15Z</time>
      </trkpt>
      <trkpt lat="46.1676" lon="6.56268">
        <ele>1492</ele>
        <time>2024-02-24T09:01:47Z</time>
      </trkpt>
      <trkpt lat="46.16742" lon="6.56279">
        <ele>1494</ele>
        <time>2024-02-24T09:02:08Z</time>
      </trkpt>
      <trkpt lat="46.16724" lon="6.56311">
        <ele>1494</ele>
        <time>2024-02-24T09:02:43Z</time>
      </trkpt>
      <trkpt lat="46.16717" lon="6.5632">
        <ele>1495</ele>
        <time>2024-02-24T09:02:52Z</time>
      </trkpt>
      <trkpt lat="46.1671" lon="6.5633">
        <ele>1495</ele>
        <time>2024-02-24T09:03:02Z</time>
      </trkpt>
      <trkpt lat="46.16704" lon="6.56339">
        <ele>1495</ele>
        <time>2024-02-24T09:03:13Z</time>
      </trkpt>
      <trkpt lat="46.16688" lon="6.56373">
        <ele>1495</ele>
        <time>2024-02-24T09:03:43Z</time>
      </trkpt>
      <trkpt lat="46.16676" lon="6.56394">
        <ele>1496</ele>
        <time>2024-02-24T09:04:04Z</time>
      </trkpt>
      <trkpt lat="46.16663" lon="6.56415">
        <ele>1499</ele>
        <time>2024-02-24T09:04:26Z</time>
      </trkpt>
      <trkpt lat="46.16655" lon="6.56422">
        <ele>1500</ele>
        <time>2024-02-24T09:04:37Z</time>
      </trkpt>
      <trkpt lat="46.16647" lon="6.56428">
        <ele>1500</ele>
        <time>2024-02-24T09:04:45Z</time>
      </trkpt>
      <trkpt lat="46.16638" lon="6.56433">
        <ele>1502</ele>
        <time>2024-02-24T09:04:56Z</time>
      </trkpt>
      <trkpt lat="46.16611" lon="6.56444">
        <ele>1501</ele>
        <time>2024-02-24T09:05:28Z</time>
      </trkpt>
      <trkpt lat="46.16585" lon="6.56449">
        <ele>1504</ele>
        <time>2024-02-24T09:05:59Z</time>
      </trkpt>
      <trkpt lat="46.16575" lon="6.56451">
        <ele>1505</ele>
        <time>2024-02-24T09:06:09Z</time>
      </trkpt>
      <trkpt lat="46.16567" lon="6.56457">
        <ele>1506</ele>
        <time>2024-02-24T09:06:18Z</time>
      </trkpt>
      <trkpt lat="46.16559" lon="6.5646">
        <ele>1506</ele>
        <time>2024-02-24T09:07:06Z</time>
      </trkpt>
      <trkpt lat="46.16553" lon="6.56467">
        <ele>1507</ele>
        <time>2024-02-24T09:07:20Z</time>
      </trkpt>
      <trkpt lat="46.16535" lon="6.56487">
        <ele>1512</ele>
        <time>2024-02-24T09:07:43Z</time>
      </trkpt>
      <trkpt lat="46.16531" lon="6.5649">
        <ele>1512</ele>
        <time>2024-02-24T09:07:47Z</time>
      </trkpt>
      <trkpt lat="46.16528" lon="6.56494">
        <ele>1513</ele>
        <time>2024-02-24T09:07:52Z</time>
      </trkpt>
      <trkpt lat="46.16525" lon="6.56497">
        <ele>1514</ele>
        <time>2024-02-24T09:07:56Z</time>
      </trkpt>
      <trkpt lat="46.16522" lon="6.565">
        <ele>1514</ele>
        <time>2024-02-24T09:08:00Z</time>
      </trkpt>
      <trkpt lat="46.16515" lon="6.56508">
        <ele>1514</ele>
        <time>2024-02-24T09:08:16Z</time>
      </trkpt>
      <trkpt lat="46.16506" lon="6.56513">
        <ele>1514</ele>
        <time>2024-02-24T09:08:26Z</time>
      </trkpt>
      <trkpt lat="46.16496" lon="6.56537">
        <ele>1514</ele>
        <time>2024-02-24T09:08:42Z</time>
      </trkpt>
      <trkpt lat="46.16489" lon="6.56549">
        <ele>1516</ele>
        <time>2024-02-24T09:08:53Z</time>
      </trkpt>
      <trkpt lat="46.16482" lon="6.56574">
        <ele>1517</ele>
        <time>2024-02-24T09:09:13Z</time>
      </trkpt>
      <trkpt lat="46.16478" lon="6.56588">
        <ele>1516</ele>
        <time>2024-02-24T09:09:25Z</time>
      </trkpt>
      <trkpt lat="46.16472" lon="6.56599">
        <ele>1516</ele>
        <time>2024-02-24T09:09:35Z</time>
      </trkpt>
      <trkpt lat="46.1647" lon="6.56613">
        <ele>1516</ele>
        <time>2024-02-24T09:09:46Z</time>
      </trkpt>
      <trkpt lat="46.16464" lon="6.56624">
        <ele>1517</ele>
        <time>2024-02-24T09:09:55Z</time>
      </trkpt>
      <trkpt lat="46.1645" lon="6.56659">
        <ele>1520</ele>
        <time>2024-02-24T09:10:29Z</time>
      </trkpt>
      <trkpt lat="46.16444" lon="6.5667">
        <ele>1520</ele>
        <time>2024-02-24T09:10:39Z</time>
      </trkpt>
      <trkpt lat="46.16434" lon="6.56693">
        <ele>1521</ele>
        <time>2024-02-24T09:10:59Z</time>
      </trkpt>
      <trkpt lat="46.16422" lon="6.56714">
        <ele>1523</ele>
        <time>2024-02-24T09:11:20Z</time>
      </trkpt>
      <trkpt lat="46.16418" lon="6.56726">
        <ele>1525</ele>
        <time>2024-02-24T09:11:31Z</time>
      </trkpt>
      <trkpt lat="46.16411" lon="6.56735">
        <ele>1525</ele>
        <time>2024-02-24T09:11:40Z</time>
      </trkpt>
      <trkpt lat="46.16388" lon="6.56777">
        <ele>1527</ele>
        <time>2024-02-24T09:12:18Z</time>
      </trkpt>
      <trkpt lat="46.16382" lon="6.56787">
        <ele>1527</ele>
        <time>2024-02-24T09:12:28Z</time>
      </trkpt>
      <trkpt lat="46.16377" lon="6.56798">
        <ele>1528</ele>
        <time>2024-02-24T09:12:38Z</time>
      </trkpt>
      <trkpt lat="46.1636" lon="6.5683">
        <ele>1532</ele>
        <time>2024-02-24T09:13:08Z</time>
      </trkpt>
      <trkpt lat="46.16356" lon="6.56842">
        <ele>1533</ele>
        <time>2024-02-24T09:13:19Z</time>
      </trkpt>
      <trkpt lat="46.16345" lon="6.56864">
        <ele>1532</ele>
        <time>2024-02-24T09:13:36Z</time>
      </trkpt>
      <trkpt lat="46.16342" lon="6.56876">
        <ele>1533</ele>
        <time>2024-02-24T09:13:46Z</time>
      </trkpt>
      <trkpt lat="46.16335" lon="6.56886">
        <ele>1536</ele>
        <time>2024-02-24T09:13:58Z</time>
      </trkpt>
      <trkpt lat="46.16326" lon="6.5691">
        <ele>1535</ele>
        <time>2024-02-24T09:14:17Z</time>
      </trkpt>
      <trkpt lat="46.16324" lon="6.56924">
        <ele>1534</ele>
        <time>2024-02-24T09:14:26Z</time>
      </trkpt>
      <trkpt lat="46.16322" lon="6.56937">
        <ele>1537</ele>
        <time>2024-02-24T09:14:36Z</time>
      </trkpt>
      <trkpt lat="46.16319" lon="6.56949">
        <ele>1539</ele>
        <time>2024-02-24T09:14:46Z</time>
      </trkpt>
      <trkpt lat="46.16317" lon="6.56962">
        <ele>1542</ele>
        <time>2024-02-24T09:14:56Z</time>
      </trkpt>
      <trkpt lat="46.16317" lon="6.56976">
        <ele>1541</ele>
        <time>2024-02-24T09:15:06Z</time>
      </trkpt>
      <trkpt lat="46.16317" lon="6.5699">
        <ele>1539</ele>
        <time>2024-02-24T09:15:17Z</time>
      </trkpt>
      <trkpt lat="46.16315" lon="6.57004">
        <ele>1540</ele>
        <time>2024-02-24T09:15:28Z</time>
      </trkpt>
      <trkpt lat="46.16314" lon="6.57017">
        <ele>1542</ele>
        <time>2024-02-24T09:15:39Z</time>
      </trkpt>
      <trkpt lat="46.16312" lon="6.57031">
        <ele>1544</ele>
        <time>2024-02-24T09:15:51Z</time>
      </trkpt>
      <trkpt lat="46.16303" lon="6.57056">
        <ele>1547</ele>
        <time>2024-02-24T09:16:11Z</time>
      </trkpt>
      <trkpt lat="46.163" lon="6.57069">
        <ele>1550</ele>
        <time>2024-02-24T09:16:22Z</time>
      </trkpt>
      <trkpt lat="46.16298" lon="6.57082">
        <ele>1550</ele>
        <time>2024-02-24T09:16:32Z</time>
      </trkpt>
      <trkpt lat="46.16292" lon="6.57107">
        <ele>1550</ele>
        <time>2024-02-24T09:16:52Z</time>
      </trkpt>
      <trkpt lat="46.16284" lon="6.57146">
        <ele>1551</ele>
        <time>2024-02-24T09:17:24Z</time>
      </trkpt>
      <trkpt lat="46.16282" lon="6.57173">
        <ele>1549</ele>
        <time>2024-02-24T09:22:56Z</time>
      </trkpt>
      <trkpt lat="46.16283" lon="6.57186">
        <ele>1549</ele>
        <time>2024-02-24T09:23:05Z</time>
      </trkpt>
      <trkpt lat="46.16281" lon="6.57199">
        <ele>1549</ele>
        <time>2024-02-24T09:23:17Z</time>
      </trkpt>
      <trkpt lat="46.16295" lon="6.57235">
        <ele>1551</ele>
        <time>2024-02-24T09:23:56Z</time>
      </trkpt>
      <trkpt lat="46.16304" lon="6.57258">
        <ele>1553</ele>
        <time>2024-02-24T09:24:17Z</time>
      </trkpt>
      <trkpt lat="46.16313" lon="6.57264">
        <ele>1548</ele>
        <time>2024-02-24T09:24:28Z</time>
      </trkpt>
      <trkpt lat="46.16331" lon="6.57297">
        <ele>1550</ele>
        <time>2024-02-24T09:25:00Z</time>
      </trkpt>
      <trkpt lat="46.16338" lon="6.57309">
        <ele>1552</ele>
        <time>2024-02-24T09:25:11Z</time>
      </trkpt>
      <trkpt lat="46.16343" lon="6.57321">
        <ele>1554</ele>
        <time>2024-02-24T09:25:23Z</time>
      </trkpt>
      <trkpt lat="46.16361" lon="6.57356">
        <ele>1553</ele>
        <time>2024-02-24T09:25:56Z</time>
      </trkpt>
      <trkpt lat="46.16374" lon="6.57394">
        <ele>1555</ele>
        <time>2024-02-24T09:26:28Z</time>
      </trkpt>
      <trkpt lat="46.16386" lon="6.57435">
        <ele>1561</ele>
        <time>2024-02-24T09:26:58Z</time>
      </trkpt>
      <trkpt lat="46.16393" lon="6.57443">
        <ele>1562</ele>
        <time>2024-02-24T09:27:07Z</time>
      </trkpt>
      <trkpt lat="46.164" lon="6.57456">
        <ele>1559</ele>
        <time>2024-02-24T09:27:16Z</time>
      </trkpt>
      <trkpt lat="46.16407" lon="6.57466">
        <ele>1558</ele>
        <time>2024-02-24T09:27:26Z</time>
      </trkpt>
      <trkpt lat="46.16412" lon="6.57492">
        <ele>1562</ele>
        <time>2024-02-24T09:27:42Z</time>
      </trkpt>
      <trkpt lat="46.16423" lon="6.57515">
        <ele>1564</ele>
        <time>2024-02-24T09:28:03Z</time>
      </trkpt>
      <trkpt lat="46.1643" lon="6.57527">
        <ele>1560</ele>
        <time>2024-02-24T09:28:15Z</time>
      </trkpt>
      <trkpt lat="46.16438" lon="6.57535">
        <ele>1558</ele>
        <time>2024-02-24T09:28:26Z</time>
      </trkpt>
      <trkpt lat="46.16448" lon="6.57561">
        <ele>1557</ele>
        <time>2024-02-24T09:28:48Z</time>
      </trkpt>
      <trkpt lat="46.1646" lon="6.57589">
        <ele>1562</ele>
        <time>2024-02-24T09:29:12Z</time>
      </trkpt>
      <trkpt lat="46.16469" lon="6.57618">
        <ele>1562</ele>
        <time>2024-02-24T09:29:32Z</time>
      </trkpt>
      <trkpt lat="46.16485" lon="6.57654">
        <ele>1564</ele>
        <time>2024-02-24T09:29:58Z</time>
      </trkpt>
      <trkpt lat="46.16494" lon="6.57662">
        <ele>1562</ele>
        <time>2024-02-24T09:30:07Z</time>
      </trkpt>
      <trkpt lat="46.16501" lon="6.57674">
        <ele>1560</ele>
        <time>2024-02-24T09:30:17Z</time>
      </trkpt>
      <trkpt lat="46.16503" lon="6.5769">
        <ele>1560</ele>
        <time>2024-02-24T09:30:27Z</time>
      </trkpt>
      <trkpt lat="46.16505" lon="6.57705">
        <ele>1561</ele>
        <time>2024-02-24T09:30:34Z</time>
      </trkpt>
      <trkpt lat="46.16522" lon="6.57744">
        <ele>1561</ele>
        <time>2024-02-24T09:30:57Z</time>
      </trkpt>
      <trkpt lat="46.16524" lon="6.57758">
        <ele>1561</ele>
        <time>2024-02-24T09:31:04Z</time>
      </trkpt>
      <trkpt lat="46.16533" lon="6.57765">
        <ele>1561</ele>
        <time>2024-02-24T09:31:12Z</time>
      </trkpt>
      <trkpt lat="46.16544" lon="6.5779">
        <ele>1561</ele>
        <time>2024-02-24T09:31:42Z</time>
      </trkpt>
      <trkpt lat="46.16581" lon="6.57842">
        <ele>1562</ele>
        <time>2024-02-24T09:31:58Z</time>
      </trkpt>
      <trkpt lat="46.1659" lon="6.57852">
        <ele>1559</ele>
        <time>2024-02-24T09:32:01Z</time>
      </trkpt>
      <trkpt lat="46.16599" lon="6.57857">
        <ele>1556</ele>
        <time>2024-02-24T09:32:04Z</time>
      </trkpt>
      <trkpt lat="46.16608" lon="6.57867">
        <ele>1554</ele>
        <time>2024-02-24T09:32:08Z</time>
      </trkpt>
      <trkpt lat="46.16614" lon="6.57881">
        <ele>1549</ele>
        <time>2024-02-24T09:32:37Z</time>
      </trkpt>
      <trkpt lat="46.16629" lon="6.57904">
        <ele>1549</ele>
        <time>2024-02-24T09:32:50Z</time>
      </trkpt>
      <trkpt lat="46.16637" lon="6.57913">
        <ele>1552</ele>
        <time>2024-02-24T09:33:00Z</time>
      </trkpt>
      <trkpt lat="46.16657" lon="6.57926">
        <ele>1551</ele>
        <time>2024-02-24T09:33:23Z</time>
      </trkpt>
      <trkpt lat="46.16666" lon="6.57933">
        <ele>1552</ele>
        <time>2024-02-24T09:33:36Z</time>
      </trkpt>
      <trkpt lat="46.16689" lon="6.57962">
        <ele>1554</ele>
        <time>2024-02-24T09:34:15Z</time>
      </trkpt>
      <trkpt lat="46.16698" lon="6.57969">
        <ele>1556</ele>
        <time>2024-02-24T09:34:33Z</time>
      </trkpt>
      <trkpt lat="46.16707" lon="6.57977">
        <ele>1558</ele>
        <time>2024-02-24T09:34:47Z</time>
      </trkpt>
      <trkpt lat="46.16715" lon="6.57986">
        <ele>1557</ele>
        <time>2024-02-24T09:35:01Z</time>
      </trkpt>
      <trkpt lat="46.16733" lon="6.58001">
        <ele>1557</ele>
        <time>2024-02-24T09:35:30Z</time>
      </trkpt>
      <trkpt lat="46.16743" lon="6.58006">
        <ele>1561</ele>
        <time>2024-02-24T09:35:44Z</time>
      </trkpt>
      <trkpt lat="46.16753" lon="6.58011">
        <ele>1562</ele>
        <time>2024-02-24T09:35:58Z</time>
      </trkpt>
      <trkpt lat="46.16759" lon="6.58023">
        <ele>1568</ele>
        <time>2024-02-24T09:36:13Z</time>
      </trkpt>
      <trkpt lat="46.16769" lon="6.5803">
        <ele>1569</ele>
        <time>2024-02-24T09:36:27Z</time>
      </trkpt>
      <trkpt lat="46.16778" lon="6.58022">
        <ele>1571</ele>
        <time>2024-02-24T09:36:37Z</time>
      </trkpt>
      <trkpt lat="46.16789" lon="6.58026">
        <ele>1573</ele>
        <time>2024-02-24T09:36:52Z</time>
      </trkpt>
      <trkpt lat="46.16797" lon="6.58039">
        <ele>1574</ele>
        <time>2024-02-24T09:37:02Z</time>
      </trkpt>
      <trkpt lat="46.1683" lon="6.58054">
        <ele>1571</ele>
        <time>2024-02-24T09:37:40Z</time>
      </trkpt>
      <trkpt lat="46.1685" lon="6.58063">
        <ele>1572</ele>
        <time>2024-02-24T09:38:03Z</time>
      </trkpt>
      <trkpt lat="46.1686" lon="6.58069">
        <ele>1575</ele>
        <time>2024-02-24T09:38:16Z</time>
      </trkpt>
      <trkpt lat="46.16878" lon="6.58084">
        <ele>1576</ele>
        <time>2024-02-24T09:38:38Z</time>
      </trkpt>
      <trkpt lat="46.16895" lon="6.58103">
        <ele>1578</ele>
        <time>2024-02-24T09:39:03Z</time>
      </trkpt>
      <trkpt lat="46.16907" lon="6.58144">
        <ele>1577</ele>
        <time>2024-02-24T09:39:31Z</time>
      </trkpt>
      <trkpt lat="46.16915" lon="6.58153">
        <ele>1578</ele>
        <time>2024-02-24T09:39:41Z</time>
      </trkpt>
      <trkpt lat="46.16924" lon="6.58162">
        <ele>1576</ele>
        <time>2024-02-24T09:39:50Z</time>
      </trkpt>
      <trkpt lat="46.16931" lon="6.58172">
        <ele>1574</ele>
        <time>2024-02-24T09:40:01Z</time>
      </trkpt>
      <trkpt lat="46.16948" lon="6.58191">
        <ele>1574</ele>
        <time>2024-02-24T09:40:14Z</time>
      </trkpt>
      <trkpt lat="46.16959" lon="6.58191">
        <ele>1575</ele>
        <time>2024-02-24T09:40:24Z</time>
      </trkpt>
      <trkpt lat="46.16967" lon="6.58199">
        <ele>1577</ele>
        <time>2024-02-24T09:40:41Z</time>
      </trkpt>
      <trkpt lat="46.16978" lon="6.58201">
        <ele>1579</ele>
        <time>2024-02-24T09:40:57Z</time>
      </trkpt>
      <trkpt lat="46.1699" lon="6.58223">
        <ele>1580</ele>
        <time>2024-02-24T09:41:22Z</time>
      </trkpt>
      <trkpt lat="46.16998" lon="6.58234">
        <ele>1582</ele>
        <time>2024-02-24T09:41:40Z</time>
      </trkpt>
      <trkpt lat="46.17007" lon="6.58237">
        <ele>1585</ele>
        <time>2024-02-24T09:41:53Z</time>
      </trkpt>
      <trkpt lat="46.17016" lon="6.58233">
        <ele>1587</ele>
        <time>2024-02-24T09:42:10Z</time>
      </trkpt>
      <trkpt lat="46.17044" lon="6.58238">
        <ele>1591</ele>
        <time>2024-02-24T09:43:42Z</time>
      </trkpt>
      <trkpt lat="46.17054" lon="6.58234">
        <ele>1593</ele>
        <time>2024-02-24T09:43:53Z</time>
      </trkpt>
      <trkpt lat="46.17062" lon="6.58228">
        <ele>1594</ele>
        <time>2024-02-24T09:44:04Z</time>
      </trkpt>
      <trkpt lat="46.1708" lon="6.58224">
        <ele>1595</ele>
        <time>2024-02-24T09:44:31Z</time>
      </trkpt>
      <trkpt lat="46.17089" lon="6.5823">
        <ele>1595</ele>
        <time>2024-02-24T09:44:44Z</time>
      </trkpt>
      <trkpt lat="46.17097" lon="6.58239">
        <ele>1596</ele>
        <time>2024-02-24T09:44:57Z</time>
      </trkpt>
      <trkpt lat="46.17105" lon="6.58245">
        <ele>1597</ele>
        <time>2024-02-24T09:45:09Z</time>
      </trkpt>
      <trkpt lat="46.17115" lon="6.58246">
        <ele>1599</ele>
        <time>2024-02-24T09:45:18Z</time>
      </trkpt>
      <trkpt lat="46.17124" lon="6.58244">
        <ele>1600</ele>
        <time>2024-02-24T09:45:30Z</time>
      </trkpt>
      <trkpt lat="46.17133" lon="6.58243">
        <ele>1603</ele>
        <time>2024-02-24T09:45:49Z</time>
      </trkpt>
      <trkpt lat="46.17142" lon="6.58241">
        <ele>1605</ele>
        <time>2024-02-24T09:46:06Z</time>
      </trkpt>
      <trkpt lat="46.17151" lon="6.58238">
        <ele>1611</ele>
        <time>2024-02-24T09:46:28Z</time>
      </trkpt>
      <trkpt lat="46.1716" lon="6.58238">
        <ele>1611</ele>
        <time>2024-02-24T09:46:44Z</time>
      </trkpt>
      <trkpt lat="46.17169" lon="6.58242">
        <ele>1615</ele>
        <time>2024-02-24T09:47:02Z</time>
      </trkpt>
      <trkpt lat="46.17178" lon="6.58244">
        <ele>1615</ele>
        <time>2024-02-24T09:47:17Z</time>
      </trkpt>
      <trkpt lat="46.17185" lon="6.58254">
        <ele>1615</ele>
        <time>2024-02-24T09:47:35Z</time>
      </trkpt>
      <trkpt lat="46.17183" lon="6.58267">
        <ele>1617</ele>
        <time>2024-02-24T09:48:24Z</time>
      </trkpt>
      <trkpt lat="46.17183" lon="6.5828">
        <ele>1619</ele>
        <time>2024-02-24T09:48:38Z</time>
      </trkpt>
      <trkpt lat="46.17179" lon="6.58293">
        <ele>1620</ele>
        <time>2024-02-24T09:48:54Z</time>
      </trkpt>
      <trkpt lat="46.17175" lon="6.58305">
        <ele>1625</ele>
        <time>2024-02-24T09:49:07Z</time>
      </trkpt>
      <trkpt lat="46.17173" lon="6.58318">
        <ele>1628</ele>
        <time>2024-02-24T09:49:22Z</time>
      </trkpt>
      <trkpt lat="46.17174" lon="6.58331">
        <ele>1631</ele>
        <time>2024-02-24T09:49:35Z</time>
      </trkpt>
      <trkpt lat="46.17181" lon="6.5834">
        <ele>1632</ele>
        <time>2024-02-24T09:49:47Z</time>
      </trkpt>
      <trkpt lat="46.17196" lon="6.58357">
        <ele>1631</ele>
        <time>2024-02-24T09:50:16Z</time>
      </trkpt>
      <trkpt lat="46.17201" lon="6.58368">
        <ele>1637</ele>
        <time>2024-02-24T09:50:31Z</time>
      </trkpt>
      <trkpt lat="46.17211" lon="6.58371">
        <ele>1637</ele>
        <time>2024-02-24T09:50:45Z</time>
      </trkpt>
      <trkpt lat="46.17228" lon="6.58365">
        <ele>1639</ele>
        <time>2024-02-24T09:51:07Z</time>
      </trkpt>
      <trkpt lat="46.17237" lon="6.58364">
        <ele>1639</ele>
        <time>2024-02-24T09:51:27Z</time>
      </trkpt>
      <trkpt lat="46.17255" lon="6.58354">
        <ele>1641</ele>
        <time>2024-02-24T09:51:50Z</time>
      </trkpt>
      <trkpt lat="46.17272" lon="6.58344">
        <ele>1643</ele>
        <time>2024-02-24T09:52:18Z</time>
      </trkpt>
      <trkpt lat="46.17286" lon="6.58327">
        <ele>1643</ele>
        <time>2024-02-24T09:52:47Z</time>
      </trkpt>
      <trkpt lat="46.17292" lon="6.58316">
        <ele>1644</ele>
        <time>2024-02-24T09:53:00Z</time>
      </trkpt>
      <trkpt lat="46.17313" lon="6.58289">
        <ele>1649</ele>
        <time>2024-02-24T09:53:36Z</time>
      </trkpt>
      <trkpt lat="46.17322" lon="6.58283">
        <ele>1648</ele>
        <time>2024-02-24T09:53:46Z</time>
      </trkpt>
      <trkpt lat="46.17341" lon="6.58279">
        <ele>1650</ele>
        <time>2024-02-24T09:54:10Z</time>
      </trkpt>
      <trkpt lat="46.1735" lon="6.58279">
        <ele>1652</ele>
        <time>2024-02-24T09:54:27Z</time>
      </trkpt>
      <trkpt lat="46.17359" lon="6.58283">
        <ele>1654</ele>
        <time>2024-02-24T09:54:42Z</time>
      </trkpt>
      <trkpt lat="46.17368" lon="6.58282">
        <ele>1659</ele>
        <time>2024-02-24T09:55:00Z</time>
      </trkpt>
      <trkpt lat="46.17375" lon="6.58272">
        <ele>1659</ele>
        <time>2024-02-24T09:55:22Z</time>
      </trkpt>
      <trkpt lat="46.17381" lon="6.58262">
        <ele>1661</ele>
        <time>2024-02-24T09:55:39Z</time>
      </trkpt>
      <trkpt lat="46.1739" lon="6.58267">
        <ele>1665</ele>
        <time>2024-02-24T09:56:08Z</time>
      </trkpt>
      <trkpt lat="46.17401" lon="6.58291">
        <ele>1676</ele>
        <time>2024-02-24T09:56:43Z</time>
      </trkpt>
      <trkpt lat="46.17406" lon="6.58304">
        <ele>1679</ele>
        <time>2024-02-24T09:57:03Z</time>
      </trkpt>
      <trkpt lat="46.1741" lon="6.58329">
        <ele>1683</ele>
        <time>2024-02-24T09:57:35Z</time>
      </trkpt>
      <trkpt lat="46.17411" lon="6.58343">
        <ele>1684</ele>
        <time>2024-02-24T09:57:57Z</time>
      </trkpt>
      <trkpt lat="46.17411" lon="6.58357">
        <ele>1688</ele>
        <time>2024-02-24T09:58:14Z</time>
      </trkpt>
      <trkpt lat="46.17412" lon="6.5837">
        <ele>1689</ele>
        <time>2024-02-24T09:58:31Z</time>
      </trkpt>
      <trkpt lat="46.1743" lon="6.5838">
        <ele>1691</ele>
        <time>2024-02-24T09:59:02Z</time>
      </trkpt>
      <trkpt lat="46.17439" lon="6.58386">
        <ele>1691</ele>
        <time>2024-02-24T09:59:19Z</time>
      </trkpt>
      <trkpt lat="46.17447" lon="6.58393">
        <ele>1694</ele>
        <time>2024-02-24T09:59:43Z</time>
      </trkpt>
      <trkpt lat="46.17463" lon="6.58406">
        <ele>1700</ele>
        <time>2024-02-24T10:00:15Z</time>
      </trkpt>
      <trkpt lat="46.17472" lon="6.58409">
        <ele>1704</ele>
        <time>2024-02-24T10:00:28Z</time>
      </trkpt>
      <trkpt lat="46.17481" lon="6.58414">
        <ele>1708</ele>
        <time>2024-02-24T10:00:58Z</time>
      </trkpt>
      <trkpt lat="46.1749" lon="6.58417">
        <ele>1710</ele>
        <time>2024-02-24T10:01:20Z</time>
      </trkpt>
      <trkpt lat="46.17499" lon="6.58423">
        <ele>1710</ele>
        <time>2024-02-24T10:01:39Z</time>
      </trkpt>
      <trkpt lat="46.17506" lon="6.58432">
        <ele>1717</ele>
        <time>2024-02-24T10:02:02Z</time>
      </trkpt>
      <trkpt lat="46.17515" lon="6.58434">
        <ele>1717</ele>
        <time>2024-02-24T10:02:21Z</time>
      </trkpt>
      <trkpt lat="46.17525" lon="6.58437">
        <ele>1720</ele>
        <time>2024-02-24T10:02:34Z</time>
      </trkpt>
      <trkpt lat="46.17531" lon="6.58447">
        <ele>1722</ele>
        <time>2024-02-24T10:02:54Z</time>
      </trkpt>
      <trkpt lat="46.17537" lon="6.58439">
        <ele>1727</ele>
        <time>2024-02-24T10:03:37Z</time>
      </trkpt>
      <trkpt lat="46.17535" lon="6.58426">
        <ele>1727</ele>
        <time>2024-02-24T10:03:52Z</time>
      </trkpt>
      <trkpt lat="46.17544" lon="6.58429">
        <ele>1728</ele>
        <time>2024-02-24T10:04:25Z</time>
      </trkpt>
      <trkpt lat="46.17551" lon="6.58438">
        <ele>1735</ele>
        <time>2024-02-24T10:04:54Z</time>
      </trkpt>
      <trkpt lat="46.17556" lon="6.5845">
        <ele>1737</ele>
        <time>2024-02-24T10:05:26Z</time>
      </trkpt>
      <trkpt lat="46.17563" lon="6.58459">
        <ele>1741</ele>
        <time>2024-02-24T10:05:42Z</time>
      </trkpt>
      <trkpt lat="46.17571" lon="6.58465">
        <ele>1743</ele>
        <time>2024-02-24T10:06:02Z</time>
      </trkpt>
      <trkpt lat="46.17579" lon="6.58474">
        <ele>1745</ele>
        <time>2024-02-24T10:06:22Z</time>
      </trkpt>
      <trkpt lat="46.17585" lon="6.58484">
        <ele>1748</ele>
        <time>2024-02-24T10:06:45Z</time>
      </trkpt>
      <trkpt lat="46.17593" lon="6.5849">
        <ele>1750</ele>
        <time>2024-02-24T10:07:07Z</time>
      </trkpt>
      <trkpt lat="46.17594" lon="6.58476">
        <ele>1748</ele>
        <time>2024-02-24T10:07:37Z</time>
      </trkpt>
      <trkpt lat="46.17603" lon="6.58482">
        <ele>1750</ele>
        <time>2024-02-24T10:08:32Z</time>
      </trkpt>
      <trkpt lat="46.17611" lon="6.5849">
        <ele>1758</ele>
        <time>2024-02-24T10:08:53Z</time>
      </trkpt>
      <trkpt lat="46.17618" lon="6.58501">
        <ele>1763</ele>
        <time>2024-02-24T10:09:15Z</time>
      </trkpt>
      <trkpt lat="46.17624" lon="6.58512">
        <ele>1766</ele>
        <time>2024-02-24T10:09:39Z</time>
      </trkpt>
      <trkpt lat="46.17631" lon="6.58509">
        <ele>1770</ele>
        <time>2024-02-24T10:10:55Z</time>
      </trkpt>
      <trkpt lat="46.17632" lon="6.58495">
        <ele>1765</ele>
        <time>2024-02-24T10:11:14Z</time>
      </trkpt>
      <trkpt lat="46.17641" lon="6.58496">
        <ele>1771</ele>
        <time>2024-02-24T10:11:58Z</time>
      </trkpt>
      <trkpt lat="46.17648" lon="6.58505">
        <ele>1774</ele>
        <time>2024-02-24T10:12:18Z</time>
      </trkpt>
      <trkpt lat="46.17657" lon="6.58509">
        <ele>1787</ele>
        <time>2024-02-24T10:12:39Z</time>
      </trkpt>
      <trkpt lat="46.1766" lon="6.58521">
        <ele>1789</ele>
        <time>2024-02-24T10:13:00Z</time>
      </trkpt>
      <trkpt lat="46.17674" lon="6.58539">
        <ele>1795</ele>
        <time>2024-02-24T10:13:46Z</time>
      </trkpt>
      <trkpt lat="46.1768" lon="6.58549">
        <ele>1799</ele>
        <time>2024-02-24T10:14:09Z</time>
      </trkpt>
      <trkpt lat="46.17684" lon="6.58561">
        <ele>1801</ele>
        <time>2024-02-24T10:14:30Z</time>
      </trkpt>
      <trkpt lat="46.17689" lon="6.58572">
        <ele>1805</ele>
        <time>2024-02-24T10:14:53Z</time>
      </trkpt>
      <trkpt lat="46.17694" lon="6.58583">
        <ele>1805</ele>
        <time>2024-02-24T10:15:16Z</time>
      </trkpt>
      <trkpt lat="46.17698" lon="6.58595">
        <ele>1809</ele>
        <time>2024-02-24T10:15:32Z</time>
      </trkpt>
      <trkpt lat="46.17707" lon="6.586">
        <ele>1810</ele>
        <time>2024-02-24T10:15:47Z</time>
      </trkpt>
      <trkpt lat="46.17715" lon="6.58606">
        <ele>1814</ele>
        <time>2024-02-24T10:16:08Z</time>
      </trkpt>
      <trkpt lat="46.17724" lon="6.5861">
        <ele>1815</ele>
        <time>2024-02-24T10:16:30Z</time>
      </trkpt>
      <trkpt lat="46.17733" lon="6.58616">
        <ele>1818</ele>
        <time>2024-02-24T10:16:56Z</time>
      </trkpt>
      <trkpt lat="46.17742" lon="6.5862">
        <ele>1821</ele>
        <time>2024-02-24T10:17:17Z</time>
      </trkpt>
      <trkpt lat="46.17749" lon="6.5861">
        <ele>1827</ele>
        <time>2024-02-24T10:17:42Z</time>
      </trkpt>
      <trkpt lat="46.17757" lon="6.58617">
        <ele>1828</ele>
        <time>2024-02-24T10:18:03Z</time>
      </trkpt>
      <trkpt lat="46.17763" lon="6.58627">
        <ele>1832</ele>
        <time>2024-02-24T10:18:28Z</time>
      </trkpt>
      <trkpt lat="46.17771" lon="6.58636">
        <ele>1835</ele>
        <time>2024-02-24T10:18:53Z</time>
      </trkpt>
      <trkpt lat="46.17778" lon="6.58646">
        <ele>1838</ele>
        <time>2024-02-24T10:19:24Z</time>
      </trkpt>
      <trkpt lat="46.17782" lon="6.58658">
        <ele>1842</ele>
        <time>2024-02-24T10:19:53Z</time>
      </trkpt>
      <trkpt lat="46.17786" lon="6.58671">
        <ele>1845</ele>
        <time>2024-02-24T10:20:11Z</time>
      </trkpt>
      <trkpt lat="46.17791" lon="6.58682">
        <ele>1847</ele>
        <time>2024-02-24T10:20:30Z</time>
      </trkpt>
      <trkpt lat="46.178" lon="6.58708">
        <ele>1852</ele>
        <time>2024-02-24T10:21:17Z</time>
      </trkpt>
      <trkpt lat="46.17817" lon="6.58727">
        <ele>1855</ele>
        <time>2024-02-24T10:22:06Z</time>
      </trkpt>
      <trkpt lat="46.17822" lon="6.58755">
        <ele>1861</ele>
        <time>2024-02-24T10:22:53Z</time>
      </trkpt>
      <trkpt lat="46.17832" lon="6.58753">
        <ele>1865</ele>
        <time>2024-02-24T10:23:52Z</time>
      </trkpt>
      <trkpt lat="46.17836" lon="6.58741">
        <ele>1866</ele>
        <time>2024-02-24T10:24:16Z</time>
      </trkpt>
      <trkpt lat="46.17843" lon="6.58731">
        <ele>1866</ele>
        <time>2024-02-24T10:24:37Z</time>
      </trkpt>
      <trkpt lat="46.17851" lon="6.5874">
        <ele>1868</ele>
        <time>2024-02-24T10:24:58Z</time>
      </trkpt>
      <trkpt lat="46.17858" lon="6.58752">
        <ele>1878</ele>
        <time>2024-02-24T10:25:18Z</time>
      </trkpt>
      <trkpt lat="46.17857" lon="6.58766">
        <ele>1881</ele>
        <time>2024-02-24T10:25:41Z</time>
      </trkpt>
      <trkpt lat="46.17866" lon="6.5876">
        <ele>1882</ele>
        <time>2024-02-24T10:26:01Z</time>
      </trkpt>
      <trkpt lat="46.17871" lon="6.58748">
        <ele>1882</ele>
        <time>2024-02-24T10:26:21Z</time>
      </trkpt>
      <trkpt lat="46.17879" lon="6.58755">
        <ele>1886</ele>
        <time>2024-02-24T10:26:57Z</time>
      </trkpt>
      <trkpt lat="46.17884" lon="6.58766">
        <ele>1893</ele>
        <time>2024-02-24T10:27:21Z</time>
      </trkpt>
      <trkpt lat="46.17893" lon="6.58765">
        <ele>1895</ele>
        <time>2024-02-24T10:27:43Z</time>
      </trkpt>
      <trkpt lat="46.17906" lon="6.58745">
        <ele>1899</ele>
        <time>2024-02-24T10:28:47Z</time>
      </trkpt>
      <trkpt lat="46.17908" lon="6.58732">
        <ele>1906</ele>
        <time>2024-02-24T10:37:10Z</time>
      </trkpt>
      <trkpt lat="46.17911" lon="6.58719">
        <ele>1907</ele>
        <time>2024-02-24T10:37:29Z</time>
      </trkpt>
      <trkpt lat="46.17915" lon="6.58707">
        <ele>1913</ele>
        <time>2024-02-24T10:40:01Z</time>
      </trkpt>
      <trkpt lat="46.17918" lon="6.58695">
        <ele>1917</ele>
        <time>2024-02-24T10:40:20Z</time>
      </trkpt>
      <trkpt lat="46.17924" lon="6.58685">
        <ele>1921</ele>
        <time>2024-02-24T10:40:39Z</time>
      </trkpt>
      <trkpt lat="46.17932" lon="6.58677">
        <ele>1922</ele>
        <time>2024-02-24T10:41:01Z</time>
      </trkpt>
      <trkpt lat="46.17941" lon="6.58681">
        <ele>1922</ele>
        <time>2024-02-24T10:41:24Z</time>
      </trkpt>
      <trkpt lat="46.17949" lon="6.58684">
        <ele>1928</ele>
        <time>2024-02-24T10:41:44Z</time>
      </trkpt>
      <trkpt lat="46.17957" lon="6.58676">
        <ele>1931</ele>
        <time>2024-02-24T10:42:12Z</time>
      </trkpt>
      <trkpt lat="46.17957" lon="6.58663">
        <ele>1932</ele>
        <time>2024-02-24T10:42:34Z</time>
      </trkpt>
      <trkpt lat="46.17956" lon="6.5865">
        <ele>1933</ele>
        <time>2024-02-24T10:42:56Z</time>
      </trkpt>
      <trkpt lat="46.17962" lon="6.58642">
        <ele>1940</ele>
        <time>2024-02-24T10:43:44Z</time>
      </trkpt>
      <trkpt lat="46.17971" lon="6.58647">
        <ele>1942</ele>
        <time>2024-02-24T10:44:04Z</time>
      </trkpt>
      <trkpt lat="46.17979" lon="6.58653">
        <ele>1949</ele>
        <time>2024-02-24T10:44:27Z</time>
      </trkpt>
      <trkpt lat="46.17988" lon="6.58655">
        <ele>1951</ele>
        <time>2024-02-24T10:44:48Z</time>
      </trkpt>
      <trkpt lat="46.18006" lon="6.58659">
        <ele>1959</ele>
        <time>2024-02-24T10:45:40Z</time>
      </trkpt>
      <trkpt lat="46.18015" lon="6.58663">
        <ele>1962</ele>
        <time>2024-02-24T10:45:59Z</time>
      </trkpt>
      <trkpt lat="46.18018" lon="6.5865">
        <ele>1965</ele>
        <time>2024-02-24T10:46:33Z</time>
      </trkpt>
      <trkpt lat="46.18011" lon="6.58625">
        <ele>1964</ele>
        <time>2024-02-24T10:47:09Z</time>
      </trkpt>
      <trkpt lat="46.18009" lon="6.58613">
        <ele>1966</ele>
        <time>2024-02-24T10:47:30Z</time>
      </trkpt>
      <trkpt lat="46.18027" lon="6.58617">
        <ele>1977</ele>
        <time>2024-02-24T10:48:19Z</time>
      </trkpt>
      <trkpt lat="46.18036" lon="6.58615">
        <ele>1979</ele>
        <time>2024-02-24T10:48:42Z</time>
      </trkpt>
      <trkpt lat="46.18045" lon="6.58614">
        <ele>1983</ele>
        <time>2024-02-24T10:49:07Z</time>
      </trkpt>
      <trkpt lat="46.18049" lon="6.58602">
        <ele>1984</ele>
        <time>2024-02-24T10:49:39Z</time>
      </trkpt>
      <trkpt lat="46.18046" lon="6.5859">
        <ele>1985</ele>
        <time>2024-02-24T10:50:02Z</time>
      </trkpt>
      <trkpt lat="46.18042" lon="6.58578">
        <ele>1989</ele>
        <time>2024-02-24T10:50:22Z</time>
      </trkpt>
      <trkpt lat="46.18039" lon="6.58565">
        <ele>1990</ele>
        <time>2024-02-24T10:50:44Z</time>
      </trkpt>
      <trkpt lat="46.1803" lon="6.58543">
        <ele>1996</ele>
        <time>2024-02-24T10:51:37Z</time>
      </trkpt>
      <trkpt lat="46.18021" lon="6.5852">
        <ele>2002</ele>
        <time>2024-02-24T10:52:18Z</time>
      </trkpt>
      <trkpt lat="46.18015" lon="6.5851">
        <ele>2007</ele>
        <time>2024-02-24T10:53:36Z</time>
      </trkpt>
      <trkpt lat="46.18013" lon="6.58497">
        <ele>2007</ele>
        <time>2024-02-24T10:53:48Z</time>
      </trkpt>
      <trkpt lat="46.18007" lon="6.58486">
        <ele>2010</ele>
        <time>2024-02-24T10:54:05Z</time>
      </trkpt>
      <trkpt lat="46.18002" lon="6.58475">
        <ele>2011</ele>
        <time>2024-02-24T10:54:24Z</time>
      </trkpt>
      <trkpt lat="46.17998" lon="6.58463">
        <ele>2014</ele>
        <time>2024-02-24T10:54:40Z</time>
      </trkpt>
      <trkpt lat="46.17993" lon="6.58452">
        <ele>2015</ele>
        <time>2024-02-24T10:54:56Z</time>
      </trkpt>
      <trkpt lat="46.1799" lon="6.5844">
        <ele>2018</ele>
        <time>2024-02-24T10:55:16Z</time>
      </trkpt>
      <trkpt lat="46.17993" lon="6.58435">
        <ele>2027</ele>
        <time>2024-02-24T10:56:14Z</time>
      </trkpt>
      <trkpt lat="46.17994" lon="6.58422">
        <ele>2030</ele>
        <time>2024-02-24T10:56:51Z</time>
      </trkpt>
      <trkpt lat="46.17988" lon="6.58413">
        <ele>2030</ele>
        <time>2024-02-24T10:57:04Z</time>
      </trkpt>
      <trkpt lat="46.17994" lon="6.58408">
        <ele>2035</ele>
        <time>2024-02-24T10:57:44Z</time>
      </trkpt>
      <trkpt lat="46.18002" lon="6.58411">
        <ele>2038</ele>
        <time>2024-02-24T10:58:03Z</time>
      </trkpt>
      <trkpt lat="46.18001" lon="6.58397">
        <ele>2040</ele>
        <time>2024-02-24T10:58:24Z</time>
      </trkpt>
      <trkpt lat="46.17997" lon="6.58386">
        <ele>2040</ele>
        <time>2024-02-24T10:58:43Z</time>
      </trkpt>
      <trkpt lat="46.17997" lon="6.58373">
        <ele>2049</ele>
        <time>2024-02-24T10:59:10Z</time>
      </trkpt>
      <trkpt lat="46.17994" lon="6.58347">
        <ele>2051</ele>
        <time>2024-02-24T10:59:55Z</time>
      </trkpt>
      <trkpt lat="46.17991" lon="6.58335">
        <ele>2053</ele>
        <time>2024-02-24T11:00:21Z</time>
      </trkpt>
      <trkpt lat="46.17991" lon="6.58321">
        <ele>2059</ele>
        <time>2024-02-24T11:01:05Z</time>
      </trkpt>
      <trkpt lat="46.17989" lon="6.58308">
        <ele>2060</ele>
        <time>2024-02-24T11:01:21Z</time>
      </trkpt>
      <trkpt lat="46.17989" lon="6.58295">
        <ele>2063</ele>
        <time>2024-02-24T11:01:43Z</time>
      </trkpt>
      <trkpt lat="46.17993" lon="6.58283">
        <ele>2066</ele>
        <time>2024-02-24T11:02:02Z</time>
      </trkpt>
      <trkpt lat="46.17999" lon="6.58273">
        <ele>2071</ele>
        <time>2024-02-24T11:02:21Z</time>
      </trkpt>
      <trkpt lat="46.18003" lon="6.58274">
        <ele>2075</ele>
        <time>2024-02-24T11:17:26Z</time>
      </trkpt>
      <trkpt lat="46.18" lon="6.58287">
        <ele>2075</ele>
        <time>2024-02-24T11:17:29Z</time>
      </trkpt>
      <trkpt lat="46.18001" lon="6.58296">
        <ele>2074</ele>
        <time>2024-02-24T11:17:31Z</time>
      </trkpt>
      <trkpt lat="46.18003" lon="6.5831">
        <ele>2073</ele>
        <time>2024-02-24T11:17:35Z</time>
      </trkpt>
      <trkpt lat="46.17999" lon="6.58323">
        <ele>2070</ele>
        <time>2024-02-24T11:17:38Z</time>
      </trkpt>
      <trkpt lat="46.18002" lon="6.58336">
        <ele>2068</ele>
        <time>2024-02-24T11:17:41Z</time>
      </trkpt>
      <trkpt lat="46.17994" lon="6.58344">
        <ele>2065</ele>
        <time>2024-02-24T11:17:44Z</time>
      </trkpt>
      <trkpt lat="46.17988" lon="6.58357">
        <ele>2059</ele>
        <time>2024-02-24T11:17:51Z</time>
      </trkpt>
      <trkpt lat="46.17993" lon="6.5837">
        <ele>2057</ele>
        <time>2024-02-24T11:17:54Z</time>
      </trkpt>
      <trkpt lat="46.17998" lon="6.58381">
        <ele>2050</ele>
        <time>2024-02-24T11:18:00Z</time>
      </trkpt>
      <trkpt lat="46.17989" lon="6.58383">
        <ele>2048</ele>
        <time>2024-02-24T11:18:04Z</time>
      </trkpt>
      <trkpt lat="46.17989" lon="6.58398">
        <ele>2044</ele>
        <time>2024-02-24T11:18:08Z</time>
      </trkpt>
      <trkpt lat="46.17984" lon="6.5841">
        <ele>2040</ele>
        <time>2024-02-24T11:18:15Z</time>
      </trkpt>
      <trkpt lat="46.17987" lon="6.58422">
        <ele>2038</ele>
        <time>2024-02-24T11:18:18Z</time>
      </trkpt>
      <trkpt lat="46.17997" lon="6.58464">
        <ele>2021</ele>
        <time>2024-02-24T11:18:53Z</time>
      </trkpt>
      <trkpt lat="46.18004" lon="6.58478">
        <ele>2018</ele>
        <time>2024-02-24T11:18:56Z</time>
      </trkpt>
      <trkpt lat="46.18016" lon="6.585">
        <ele>2014</ele>
        <time>2024-02-24T11:19:01Z</time>
      </trkpt>
      <trkpt lat="46.18026" lon="6.58527">
        <ele>2010</ele>
        <time>2024-02-24T11:19:30Z</time>
      </trkpt>
      <trkpt lat="46.18032" lon="6.58539">
        <ele>2006</ele>
        <time>2024-02-24T11:20:01Z</time>
      </trkpt>
      <trkpt lat="46.18022" lon="6.5854">
        <ele>2003</ele>
        <time>2024-02-24T11:20:24Z</time>
      </trkpt>
      <trkpt lat="46.18025" lon="6.58553">
        <ele>1997</ele>
        <time>2024-02-24T11:20:28Z</time>
      </trkpt>
      <trkpt lat="46.18022" lon="6.58566">
        <ele>1993</ele>
        <time>2024-02-24T11:20:33Z</time>
      </trkpt>
      <trkpt lat="46.18014" lon="6.58576">
        <ele>1986</ele>
        <time>2024-02-24T11:20:41Z</time>
      </trkpt>
      <trkpt lat="46.18019" lon="6.58588">
        <ele>1981</ele>
        <time>2024-02-24T11:20:57Z</time>
      </trkpt>
      <trkpt lat="46.1801" lon="6.58596">
        <ele>1980</ele>
        <time>2024-02-24T11:21:03Z</time>
      </trkpt>
      <trkpt lat="46.18016" lon="6.58609">
        <ele>1974</ele>
        <time>2024-02-24T11:21:05Z</time>
      </trkpt>
      <trkpt lat="46.18005" lon="6.58611">
        <ele>1970</ele>
        <time>2024-02-24T11:21:12Z</time>
      </trkpt>
      <trkpt lat="46.17996" lon="6.58604">
        <ele>1969</ele>
        <time>2024-02-24T11:21:15Z</time>
      </trkpt>
      <trkpt lat="46.17988" lon="6.58599">
        <ele>1965</ele>
        <time>2024-02-24T11:21:18Z</time>
      </trkpt>
      <trkpt lat="46.17979" lon="6.58595">
        <ele>1963</ele>
        <time>2024-02-24T11:21:28Z</time>
      </trkpt>
      <trkpt lat="46.17974" lon="6.58609">
        <ele>1957</ele>
        <time>2024-02-24T11:21:33Z</time>
      </trkpt>
      <trkpt lat="46.17965" lon="6.5861">
        <ele>1955</ele>
        <time>2024-02-24T11:21:36Z</time>
      </trkpt>
      <trkpt lat="46.17955" lon="6.58619">
        <ele>1950</ele>
        <time>2024-02-24T11:21:39Z</time>
      </trkpt>
      <trkpt lat="46.17947" lon="6.58624">
        <ele>1947</ele>
        <time>2024-02-24T11:21:43Z</time>
      </trkpt>
      <trkpt lat="46.1794" lon="6.58637">
        <ele>1938</ele>
        <time>2024-02-24T11:22:04Z</time>
      </trkpt>
      <trkpt lat="46.17932" lon="6.58643">
        <ele>1937</ele>
        <time>2024-02-24T11:22:07Z</time>
      </trkpt>
      <trkpt lat="46.17922" lon="6.5865">
        <ele>1927</ele>
        <time>2024-02-24T11:22:11Z</time>
      </trkpt>
      <trkpt lat="46.1792" lon="6.58663">
        <ele>1924</ele>
        <time>2024-02-24T11:22:14Z</time>
      </trkpt>
      <trkpt lat="46.17913" lon="6.58673">
        <ele>1916</ele>
        <time>2024-02-24T11:22:19Z</time>
      </trkpt>
      <trkpt lat="46.17912" lon="6.5869">
        <ele>1914</ele>
        <time>2024-02-24T11:22:23Z</time>
      </trkpt>
      <trkpt lat="46.17904" lon="6.58696">
        <ele>1911</ele>
        <time>2024-02-24T11:22:26Z</time>
      </trkpt>
      <trkpt lat="46.17899" lon="6.5871">
        <ele>1910</ele>
        <time>2024-02-24T11:22:29Z</time>
      </trkpt>
      <trkpt lat="46.17893" lon="6.58722">
        <ele>1903</ele>
        <time>2024-02-24T11:22:49Z</time>
      </trkpt>
      <trkpt lat="46.17884" lon="6.58727">
        <ele>1903</ele>
        <time>2024-02-24T11:22:52Z</time>
      </trkpt>
      <trkpt lat="46.17873" lon="6.58729">
        <ele>1897</ele>
        <time>2024-02-24T11:22:55Z</time>
      </trkpt>
      <trkpt lat="46.17864" lon="6.58734">
        <ele>1895</ele>
        <time>2024-02-24T11:22:58Z</time>
      </trkpt>
      <trkpt lat="46.17854" lon="6.58735">
        <ele>1888</ele>
        <time>2024-02-24T11:23:02Z</time>
      </trkpt>
      <trkpt lat="46.1785" lon="6.58747">
        <ele>1878</ele>
        <time>2024-02-24T11:23:32Z</time>
      </trkpt>
      <trkpt lat="46.17841" lon="6.58739">
        <ele>1874</ele>
        <time>2024-02-24T11:23:36Z</time>
      </trkpt>
      <trkpt lat="46.17835" lon="6.58748">
        <ele>1872</ele>
        <time>2024-02-24T11:23:40Z</time>
      </trkpt>
      <trkpt lat="46.17826" lon="6.58743">
        <ele>1867</ele>
        <time>2024-02-24T11:23:44Z</time>
      </trkpt>
      <trkpt lat="46.1782" lon="6.58732">
        <ele>1863</ele>
        <time>2024-02-24T11:23:49Z</time>
      </trkpt>
      <trkpt lat="46.17814" lon="6.58721">
        <ele>1858</ele>
        <time>2024-02-24T11:24:13Z</time>
      </trkpt>
      <trkpt lat="46.17805" lon="6.5873">
        <ele>1855</ele>
        <time>2024-02-24T11:24:17Z</time>
      </trkpt>
      <trkpt lat="46.17801" lon="6.58718">
        <ele>1853</ele>
        <time>2024-02-24T11:24:22Z</time>
      </trkpt>
      <trkpt lat="46.17799" lon="6.58705">
        <ele>1851</ele>
        <time>2024-02-24T11:24:33Z</time>
      </trkpt>
      <trkpt lat="46.17793" lon="6.58691">
        <ele>1848</ele>
        <time>2024-02-24T11:24:36Z</time>
      </trkpt>
      <trkpt lat="46.17782" lon="6.58664">
        <ele>1843</ele>
        <time>2024-02-24T11:24:42Z</time>
      </trkpt>
      <trkpt lat="46.17773" lon="6.58637">
        <ele>1839</ele>
        <time>2024-02-24T11:24:49Z</time>
      </trkpt>
      <trkpt lat="46.17757" lon="6.58618">
        <ele>1835</ele>
        <time>2024-02-24T11:25:05Z</time>
      </trkpt>
      <trkpt lat="46.1775" lon="6.58605">
        <ele>1831</ele>
        <time>2024-02-24T11:25:08Z</time>
      </trkpt>
      <trkpt lat="46.17734" lon="6.58586">
        <ele>1828</ele>
        <time>2024-02-24T11:25:19Z</time>
      </trkpt>
      <trkpt lat="46.17727" lon="6.58597">
        <ele>1824</ele>
        <time>2024-02-24T11:25:49Z</time>
      </trkpt>
      <trkpt lat="46.17718" lon="6.58594">
        <ele>1818</ele>
        <time>2024-02-24T11:25:54Z</time>
      </trkpt>
      <trkpt lat="46.17708" lon="6.58604">
        <ele>1815</ele>
        <time>2024-02-24T11:26:03Z</time>
      </trkpt>
      <trkpt lat="46.17699" lon="6.58597">
        <ele>1811</ele>
        <time>2024-02-24T11:26:06Z</time>
      </trkpt>
      <trkpt lat="46.17692" lon="6.58586">
        <ele>1808</ele>
        <time>2024-02-24T11:26:23Z</time>
      </trkpt>
      <trkpt lat="46.1769" lon="6.58573">
        <ele>1805</ele>
        <time>2024-02-24T11:26:32Z</time>
      </trkpt>
      <trkpt lat="46.17686" lon="6.58561">
        <ele>1805</ele>
        <time>2024-02-24T11:26:42Z</time>
      </trkpt>
      <trkpt lat="46.17676" lon="6.5856">
        <ele>1801</ele>
        <time>2024-02-24T11:26:46Z</time>
      </trkpt>
      <trkpt lat="46.17676" lon="6.58545">
        <ele>1800</ele>
        <time>2024-02-24T11:26:50Z</time>
      </trkpt>
      <trkpt lat="46.17672" lon="6.58533">
        <ele>1796</ele>
        <time>2024-02-24T11:26:55Z</time>
      </trkpt>
      <trkpt lat="46.17666" lon="6.58523">
        <ele>1795</ele>
        <time>2024-02-24T11:27:08Z</time>
      </trkpt>
      <trkpt lat="46.1766" lon="6.58513">
        <ele>1791</ele>
        <time>2024-02-24T11:27:13Z</time>
      </trkpt>
      <trkpt lat="46.17655" lon="6.58525">
        <ele>1790</ele>
        <time>2024-02-24T11:27:17Z</time>
      </trkpt>
      <trkpt lat="46.17645" lon="6.58529">
        <ele>1784</ele>
        <time>2024-02-24T11:27:25Z</time>
      </trkpt>
      <trkpt lat="46.17638" lon="6.58515">
        <ele>1783</ele>
        <time>2024-02-24T11:27:29Z</time>
      </trkpt>
      <trkpt lat="46.17625" lon="6.58492">
        <ele>1778</ele>
        <time>2024-02-24T11:27:38Z</time>
      </trkpt>
      <trkpt lat="46.17611" lon="6.5847">
        <ele>1773</ele>
        <time>2024-02-24T11:27:59Z</time>
      </trkpt>
      <trkpt lat="46.17598" lon="6.58446">
        <ele>1769</ele>
        <time>2024-02-24T11:28:07Z</time>
      </trkpt>
      <trkpt lat="46.17589" lon="6.58434">
        <ele>1764</ele>
        <time>2024-02-24T11:28:26Z</time>
      </trkpt>
      <trkpt lat="46.17583" lon="6.58424">
        <ele>1761</ele>
        <time>2024-02-24T11:28:30Z</time>
      </trkpt>
      <trkpt lat="46.17574" lon="6.58413">
        <ele>1758</ele>
        <time>2024-02-24T11:28:35Z</time>
      </trkpt>
      <trkpt lat="46.17573" lon="6.58428">
        <ele>1755</ele>
        <time>2024-02-24T11:29:01Z</time>
      </trkpt>
      <trkpt lat="46.17565" lon="6.5842">
        <ele>1754</ele>
        <time>2024-02-24T11:29:06Z</time>
      </trkpt>
      <trkpt lat="46.17544" lon="6.58387">
        <ele>1745</ele>
        <time>2024-02-24T11:29:17Z</time>
      </trkpt>
      <trkpt lat="46.17528" lon="6.58368">
        <ele>1741</ele>
        <time>2024-02-24T11:29:25Z</time>
      </trkpt>
      <trkpt lat="46.17522" lon="6.58358">
        <ele>1739</ele>
        <time>2024-02-24T11:29:29Z</time>
      </trkpt>
      <trkpt lat="46.17516" lon="6.5837">
        <ele>1736</ele>
        <time>2024-02-24T11:29:53Z</time>
      </trkpt>
      <trkpt lat="46.17506" lon="6.58362">
        <ele>1735</ele>
        <time>2024-02-24T11:29:56Z</time>
      </trkpt>
      <trkpt lat="46.17495" lon="6.5836">
        <ele>1727</ele>
        <time>2024-02-24T11:29:59Z</time>
      </trkpt>
      <trkpt lat="46.1749" lon="6.58371">
        <ele>1725</ele>
        <time>2024-02-24T11:30:02Z</time>
      </trkpt>
      <trkpt lat="46.17481" lon="6.5838">
        <ele>1718</ele>
        <time>2024-02-24T11:30:06Z</time>
      </trkpt>
      <trkpt lat="46.17474" lon="6.58371">
        <ele>1714</ele>
        <time>2024-02-24T11:30:18Z</time>
      </trkpt>
      <trkpt lat="46.17469" lon="6.58383">
        <ele>1712</ele>
        <time>2024-02-24T11:30:29Z</time>
      </trkpt>
      <trkpt lat="46.17461" lon="6.58389">
        <ele>1706</ele>
        <time>2024-02-24T11:30:32Z</time>
      </trkpt>
      <trkpt lat="46.17452" lon="6.58389">
        <ele>1704</ele>
        <time>2024-02-24T11:30:35Z</time>
      </trkpt>
      <trkpt lat="46.1744" lon="6.58395">
        <ele>1698</ele>
        <time>2024-02-24T11:30:38Z</time>
      </trkpt>
      <trkpt lat="46.17431" lon="6.58384">
        <ele>1697</ele>
        <time>2024-02-24T11:30:42Z</time>
      </trkpt>
      <trkpt lat="46.1742" lon="6.58377">
        <ele>1693</ele>
        <time>2024-02-24T11:30:45Z</time>
      </trkpt>
      <trkpt lat="46.17411" lon="6.58369">
        <ele>1691</ele>
        <time>2024-02-24T11:30:49Z</time>
      </trkpt>
      <trkpt lat="46.17406" lon="6.58366">
        <ele>1687</ele>
        <time>2024-02-24T11:31:09Z</time>
      </trkpt>
      <trkpt lat="46.17409" lon="6.5835">
        <ele>1687</ele>
        <time>2024-02-24T11:31:14Z</time>
      </trkpt>
      <trkpt lat="46.17411" lon="6.5832">
        <ele>1683</ele>
        <time>2024-02-24T11:31:20Z</time>
      </trkpt>
      <trkpt lat="46.17408" lon="6.58306">
        <ele>1681</ele>
        <time>2024-02-24T11:31:41Z</time>
      </trkpt>
      <trkpt lat="46.17397" lon="6.58265">
        <ele>1678</ele>
        <time>2024-02-24T11:31:54Z</time>
      </trkpt>
      <trkpt lat="46.17387" lon="6.58264">
        <ele>1675</ele>
        <time>2024-02-24T11:32:00Z</time>
      </trkpt>
      <trkpt lat="46.17379" lon="6.58255">
        <ele>1674</ele>
        <time>2024-02-24T11:32:04Z</time>
      </trkpt>
      <trkpt lat="46.1737" lon="6.58248">
        <ele>1671</ele>
        <time>2024-02-24T11:32:08Z</time>
      </trkpt>
      <trkpt lat="46.17361" lon="6.58246">
        <ele>1669</ele>
        <time>2024-02-24T11:32:16Z</time>
      </trkpt>
      <trkpt lat="46.1735" lon="6.58248">
        <ele>1667</ele>
        <time>2024-02-24T11:32:20Z</time>
      </trkpt>
      <trkpt lat="46.17341" lon="6.58244">
        <ele>1665</ele>
        <time>2024-02-24T11:32:25Z</time>
      </trkpt>
      <trkpt lat="46.1733" lon="6.58242">
        <ele>1662</ele>
        <time>2024-02-24T11:32:37Z</time>
      </trkpt>
      <trkpt lat="46.17322" lon="6.58242">
        <ele>1659</ele>
        <time>2024-02-24T11:33:18Z</time>
      </trkpt>
      <trkpt lat="46.17319" lon="6.5824">
        <ele>1660</ele>
        <time>2024-02-24T11:35:18Z</time>
      </trkpt>
      <trkpt lat="46.17318" lon="6.58235">
        <ele>1658</ele>
        <time>2024-02-24T11:35:20Z</time>
      </trkpt>
      <trkpt lat="46.17314" lon="6.5823">
        <ele>1655</ele>
        <time>2024-02-24T11:35:22Z</time>
      </trkpt>
      <trkpt lat="46.1731" lon="6.58229">
        <ele>1655</ele>
        <time>2024-02-24T11:35:23Z</time>
      </trkpt>
      <trkpt lat="46.17308" lon="6.58225">
        <ele>1654</ele>
        <time>2024-02-24T11:35:24Z</time>
      </trkpt>
      <trkpt lat="46.173" lon="6.58217">
        <ele>1652</ele>
        <time>2024-02-24T11:35:27Z</time>
      </trkpt>
      <trkpt lat="46.17298" lon="6.58213">
        <ele>1651</ele>
        <time>2024-02-24T11:35:28Z</time>
      </trkpt>
      <trkpt lat="46.17292" lon="6.58208">
        <ele>1649</ele>
        <time>2024-02-24T11:35:30Z</time>
      </trkpt>
      <trkpt lat="46.17287" lon="6.58205">
        <ele>1646</ele>
        <time>2024-02-24T11:35:32Z</time>
      </trkpt>
      <trkpt lat="46.1728" lon="6.58198">
        <ele>1644</ele>
        <time>2024-02-24T11:35:35Z</time>
      </trkpt>
      <trkpt lat="46.17282" lon="6.58193">
        <ele>1643</ele>
        <time>2024-02-24T11:35:43Z</time>
      </trkpt>
      <trkpt lat="46.1728" lon="6.58186">
        <ele>1642</ele>
        <time>2024-02-24T11:35:46Z</time>
      </trkpt>
      <trkpt lat="46.17274" lon="6.58185">
        <ele>1640</ele>
        <time>2024-02-24T11:35:48Z</time>
      </trkpt>
      <trkpt lat="46.17268" lon="6.58186">
        <ele>1639</ele>
        <time>2024-02-24T11:35:50Z</time>
      </trkpt>
      <trkpt lat="46.17267" lon="6.58179">
        <ele>1637</ele>
        <time>2024-02-24T11:35:52Z</time>
      </trkpt>
      <trkpt lat="46.17268" lon="6.58173">
        <ele>1637</ele>
        <time>2024-02-24T11:35:54Z</time>
      </trkpt>
      <trkpt lat="46.17265" lon="6.58168">
        <ele>1636</ele>
        <time>2024-02-24T11:35:56Z</time>
      </trkpt>
      <trkpt lat="46.17262" lon="6.58169">
        <ele>1635</ele>
        <time>2024-02-24T11:35:57Z</time>
      </trkpt>
      <trkpt lat="46.17259" lon="6.58165">
        <ele>1633</ele>
        <time>2024-02-24T11:35:58Z</time>
      </trkpt>
      <trkpt lat="46.17255" lon="6.58159">
        <ele>1632</ele>
        <time>2024-02-24T11:36:00Z</time>
      </trkpt>
      <trkpt lat="46.17252" lon="6.58155">
        <ele>1632</ele>
        <time>2024-02-24T11:36:02Z</time>
      </trkpt>
      <trkpt lat="46.17233" lon="6.58144">
        <ele>1629</ele>
        <time>2024-02-24T11:36:11Z</time>
      </trkpt>
      <trkpt lat="46.17229" lon="6.58149">
        <ele>1627</ele>
        <time>2024-02-24T11:36:12Z</time>
      </trkpt>
      <trkpt lat="46.17224" lon="6.58148">
        <ele>1627</ele>
        <time>2024-02-24T11:36:13Z</time>
      </trkpt>
      <trkpt lat="46.1722" lon="6.58152">
        <ele>1625</ele>
        <time>2024-02-24T11:36:14Z</time>
      </trkpt>
      <trkpt lat="46.17214" lon="6.58153">
        <ele>1624</ele>
        <time>2024-02-24T11:36:15Z</time>
      </trkpt>
      <trkpt lat="46.17209" lon="6.58158">
        <ele>1622</ele>
        <time>2024-02-24T11:36:16Z</time>
      </trkpt>
      <trkpt lat="46.17202" lon="6.58159">
        <ele>1620</ele>
        <time>2024-02-24T11:36:17Z</time>
      </trkpt>
      <trkpt lat="46.17196" lon="6.58165">
        <ele>1619</ele>
        <time>2024-02-24T11:36:18Z</time>
      </trkpt>
      <trkpt lat="46.1719" lon="6.58167">
        <ele>1618</ele>
        <time>2024-02-24T11:36:19Z</time>
      </trkpt>
      <trkpt lat="46.17186" lon="6.58174">
        <ele>1617</ele>
        <time>2024-02-24T11:36:20Z</time>
      </trkpt>
      <trkpt lat="46.17181" lon="6.58176">
        <ele>1616</ele>
        <time>2024-02-24T11:36:21Z</time>
      </trkpt>
      <trkpt lat="46.17174" lon="6.58186">
        <ele>1614</ele>
        <time>2024-02-24T11:36:23Z</time>
      </trkpt>
      <trkpt lat="46.1717" lon="6.58191">
        <ele>1613</ele>
        <time>2024-02-24T11:36:24Z</time>
      </trkpt>
      <trkpt lat="46.17167" lon="6.58199">
        <ele>1612</ele>
        <time>2024-02-24T11:36:25Z</time>
      </trkpt>
      <trkpt lat="46.17162" lon="6.58202">
        <ele>1611</ele>
        <time>2024-02-24T11:36:26Z</time>
      </trkpt>
      <trkpt lat="46.17155" lon="6.58212">
        <ele>1610</ele>
        <time>2024-02-24T11:36:28Z</time>
      </trkpt>
      <trkpt lat="46.1715" lon="6.58214">
        <ele>1609</ele>
        <time>2024-02-24T11:36:29Z</time>
      </trkpt>
      <trkpt lat="46.17142" lon="6.5822">
        <ele>1608</ele>
        <time>2024-02-24T11:36:31Z</time>
      </trkpt>
      <trkpt lat="46.17136" lon="6.58222">
        <ele>1608</ele>
        <time>2024-02-24T11:36:32Z</time>
      </trkpt>
      <trkpt lat="46.17132" lon="6.58227">
        <ele>1607</ele>
        <time>2024-02-24T11:36:33Z</time>
      </trkpt>
      <trkpt lat="46.17121" lon="6.58232">
        <ele>1606</ele>
        <time>2024-02-24T11:36:35Z</time>
      </trkpt>
      <trkpt lat="46.17111" lon="6.58241">
        <ele>1604</ele>
        <time>2024-02-24T11:36:37Z</time>
      </trkpt>
      <trkpt lat="46.17101" lon="6.5824">
        <ele>1603</ele>
        <time>2024-02-24T11:36:39Z</time>
      </trkpt>
      <trkpt lat="46.1709" lon="6.58235">
        <ele>1600</ele>
        <time>2024-02-24T11:36:42Z</time>
      </trkpt>
      <trkpt lat="46.17079" lon="6.58229">
        <ele>1599</ele>
        <time>2024-02-24T11:36:45Z</time>
      </trkpt>
      <trkpt lat="46.17067" lon="6.5823">
        <ele>1597</ele>
        <time>2024-02-24T11:36:48Z</time>
      </trkpt>
      <trkpt lat="46.17058" lon="6.58234">
        <ele>1595</ele>
        <time>2024-02-24T11:36:50Z</time>
      </trkpt>
      <trkpt lat="46.17049" lon="6.58236">
        <ele>1594</ele>
        <time>2024-02-24T11:36:52Z</time>
      </trkpt>
      <trkpt lat="46.17026" lon="6.58235">
        <ele>1592</ele>
        <time>2024-02-24T11:36:57Z</time>
      </trkpt>
      <trkpt lat="46.17003" lon="6.5824">
        <ele>1589</ele>
        <time>2024-02-24T11:37:02Z</time>
      </trkpt>
      <trkpt lat="46.16994" lon="6.58235">
        <ele>1588</ele>
        <time>2024-02-24T11:37:04Z</time>
      </trkpt>
      <trkpt lat="46.16988" lon="6.58221">
        <ele>1586</ele>
        <time>2024-02-24T11:37:06Z</time>
      </trkpt>
      <trkpt lat="46.16979" lon="6.58209">
        <ele>1585</ele>
        <time>2024-02-24T11:37:08Z</time>
      </trkpt>
      <trkpt lat="46.16968" lon="6.58199">
        <ele>1584</ele>
        <time>2024-02-24T11:37:10Z</time>
      </trkpt>
      <trkpt lat="46.16933" lon="6.58179">
        <ele>1580</ele>
        <time>2024-02-24T11:37:16Z</time>
      </trkpt>
      <trkpt lat="46.16924" lon="6.58172">
        <ele>1580</ele>
        <time>2024-02-24T11:37:20Z</time>
      </trkpt>
      <trkpt lat="46.16908" lon="6.5816">
        <ele>1580</ele>
        <time>2024-02-24T11:37:43Z</time>
      </trkpt>
      <trkpt lat="46.16899" lon="6.58137">
        <ele>1583</ele>
        <time>2024-02-24T11:38:03Z</time>
      </trkpt>
      <trkpt lat="46.16892" lon="6.58127">
        <ele>1586</ele>
        <time>2024-02-24T11:38:16Z</time>
      </trkpt>
      <trkpt lat="46.16887" lon="6.58111">
        <ele>1585</ele>
        <time>2024-02-24T11:38:24Z</time>
      </trkpt>
      <trkpt lat="46.16865" lon="6.58081">
        <ele>1583</ele>
        <time>2024-02-24T11:38:38Z</time>
      </trkpt>
      <trkpt lat="46.16823" lon="6.58048">
        <ele>1580</ele>
        <time>2024-02-24T11:39:08Z</time>
      </trkpt>
      <trkpt lat="46.16814" lon="6.58043">
        <ele>1579</ele>
        <time>2024-02-24T11:39:11Z</time>
      </trkpt>
      <trkpt lat="46.16794" lon="6.5803">
        <ele>1577</ele>
        <time>2024-02-24T11:39:16Z</time>
      </trkpt>
      <trkpt lat="46.16775" lon="6.58022">
        <ele>1576</ele>
        <time>2024-02-24T11:39:20Z</time>
      </trkpt>
      <trkpt lat="46.16765" lon="6.5802">
        <ele>1576</ele>
        <time>2024-02-24T11:39:22Z</time>
      </trkpt>
      <trkpt lat="46.16735" lon="6.58001">
        <ele>1574</ele>
        <time>2024-02-24T11:39:28Z</time>
      </trkpt>
      <trkpt lat="46.16711" lon="6.57983">
        <ele>1570</ele>
        <time>2024-02-24T11:39:32Z</time>
      </trkpt>
      <trkpt lat="46.16696" lon="6.57975">
        <ele>1568</ele>
        <time>2024-02-24T11:39:34Z</time>
      </trkpt>
      <trkpt lat="46.16643" lon="6.57926">
        <ele>1559</ele>
        <time>2024-02-24T11:39:41Z</time>
      </trkpt>
      <trkpt lat="46.1662" lon="6.57894">
        <ele>1555</ele>
        <time>2024-02-24T11:39:45Z</time>
      </trkpt>
      <trkpt lat="46.16607" lon="6.57864">
        <ele>1554</ele>
        <time>2024-02-24T11:39:49Z</time>
      </trkpt>
      <trkpt lat="46.166" lon="6.57856">
        <ele>1554</ele>
        <time>2024-02-24T11:39:53Z</time>
      </trkpt>
      <trkpt lat="46.16592" lon="6.57846">
        <ele>1556</ele>
        <time>2024-02-24T11:40:23Z</time>
      </trkpt>
      <trkpt lat="46.16581" lon="6.5784">
        <ele>1557</ele>
        <time>2024-02-24T11:40:28Z</time>
      </trkpt>
      <trkpt lat="46.16577" lon="6.57829">
        <ele>1559</ele>
        <time>2024-02-24T11:40:57Z</time>
      </trkpt>
      <trkpt lat="46.1657" lon="6.5782">
        <ele>1561</ele>
        <time>2024-02-24T11:41:21Z</time>
      </trkpt>
      <trkpt lat="46.16563" lon="6.57811">
        <ele>1562</ele>
        <time>2024-02-24T11:41:32Z</time>
      </trkpt>
      <trkpt lat="46.16555" lon="6.57803">
        <ele>1561</ele>
        <time>2024-02-24T11:41:43Z</time>
      </trkpt>
      <trkpt lat="46.16552" lon="6.5779">
        <ele>1562</ele>
        <time>2024-02-24T11:42:00Z</time>
      </trkpt>
      <trkpt lat="46.16544" lon="6.57782">
        <ele>1562</ele>
        <time>2024-02-24T11:42:17Z</time>
      </trkpt>
      <trkpt lat="46.16527" lon="6.5775">
        <ele>1566</ele>
        <time>2024-02-24T11:42:49Z</time>
      </trkpt>
      <trkpt lat="46.1652" lon="6.5774">
        <ele>1565</ele>
        <time>2024-02-24T11:42:59Z</time>
      </trkpt>
      <trkpt lat="46.16513" lon="6.57731">
        <ele>1566</ele>
        <time>2024-02-24T11:43:10Z</time>
      </trkpt>
      <trkpt lat="46.16509" lon="6.57719">
        <ele>1567</ele>
        <time>2024-02-24T11:43:21Z</time>
      </trkpt>
      <trkpt lat="46.16502" lon="6.5771">
        <ele>1568</ele>
        <time>2024-02-24T11:43:31Z</time>
      </trkpt>
      <trkpt lat="46.16498" lon="6.57683">
        <ele>1566</ele>
        <time>2024-02-24T11:43:59Z</time>
      </trkpt>
      <trkpt lat="46.16495" lon="6.57671">
        <ele>1568</ele>
        <time>2024-02-24T11:44:16Z</time>
      </trkpt>
      <trkpt lat="46.16477" lon="6.57641">
        <ele>1569</ele>
        <time>2024-02-24T11:44:52Z</time>
      </trkpt>
      <trkpt lat="46.16456" lon="6.57584">
        <ele>1568</ele>
        <time>2024-02-24T11:45:23Z</time>
      </trkpt>
      <trkpt lat="46.16406" lon="6.57464">
        <ele>1562</ele>
        <time>2024-02-24T11:45:56Z</time>
      </trkpt>
      <trkpt lat="46.16364" lon="6.57363">
        <ele>1559</ele>
        <time>2024-02-24T11:46:30Z</time>
      </trkpt>
      <trkpt lat="46.16354" lon="6.57337">
        <ele>1558</ele>
        <time>2024-02-24T11:46:38Z</time>
      </trkpt>
      <trkpt lat="46.16299" lon="6.57244">
        <ele>1553</ele>
        <time>2024-02-24T11:47:02Z</time>
      </trkpt>
      <trkpt lat="46.16284" lon="6.57186">
        <ele>1550</ele>
        <time>2024-02-24T11:47:12Z</time>
      </trkpt>
      <trkpt lat="46.16282" lon="6.57169">
        <ele>1548</ele>
        <time>2024-02-24T11:47:14Z</time>
      </trkpt>
      <trkpt lat="46.1629" lon="6.57113">
        <ele>1543</ele>
        <time>2024-02-24T11:47:22Z</time>
      </trkpt>
      <trkpt lat="46.16299" lon="6.57068">
        <ele>1539</ele>
        <time>2024-02-24T11:47:30Z</time>
      </trkpt>
      <trkpt lat="46.16338" lon="6.56877">
        <ele>1528</ele>
        <time>2024-02-24T11:47:59Z</time>
      </trkpt>
      <trkpt lat="46.1642" lon="6.5672">
        <ele>1517</ele>
        <time>2024-02-24T11:48:31Z</time>
      </trkpt>
      <trkpt lat="46.16473" lon="6.56595">
        <ele>1511</ele>
        <time>2024-02-24T11:49:01Z</time>
      </trkpt>
      <trkpt lat="46.16495" lon="6.56538">
        <ele>1509</ele>
        <time>2024-02-24T11:49:13Z</time>
      </trkpt>
      <trkpt lat="46.1654" lon="6.56475">
        <ele>1504</ele>
        <time>2024-02-24T11:49:28Z</time>
      </trkpt>
      <trkpt lat="46.16559" lon="6.56457">
        <ele>1501</ele>
        <time>2024-02-24T11:49:34Z</time>
      </trkpt>
      <trkpt lat="46.16641" lon="6.56427">
        <ele>1495</ele>
        <time>2024-02-24T11:49:54Z</time>
      </trkpt>
      <trkpt lat="46.1667" lon="6.56391">
        <ele>1493</ele>
        <time>2024-02-24T11:50:03Z</time>
      </trkpt>
      <trkpt lat="46.16736" lon="6.56288">
        <ele>1491</ele>
        <time>2024-02-24T11:50:25Z</time>
      </trkpt>
      <trkpt lat="46.16793" lon="6.56242">
        <ele>1491</ele>
        <time>2024-02-24T11:50:39Z</time>
      </trkpt>
      <trkpt lat="46.16819" lon="6.56201">
        <ele>1489</ele>
        <time>2024-02-24T11:50:47Z</time>
      </trkpt>
      <trkpt lat="46.16853" lon="6.56109">
        <ele>1484</ele>
        <time>2024-02-24T11:51:03Z</time>
      </trkpt>
      <trkpt lat="46.16868" lon="6.56069">
        <ele>1479</ele>
        <time>2024-02-24T11:51:10Z</time>
      </trkpt>
      <trkpt lat="46.16875" lon="6.56014">
        <ele>1475</ele>
        <time>2024-02-24T11:51:18Z</time>
      </trkpt>
      <trkpt lat="46.16874" lon="6.55988">
        <ele>1474</ele>
        <time>2024-02-24T11:51:22Z</time>
      </trkpt>
      <trkpt lat="46.16835" lon="6.55806">
        <ele>1465</ele>
        <time>2024-02-24T11:51:52Z</time>
      </trkpt>
      <trkpt lat="46.16819" lon="6.55756">
        <ele>1462</ele>
        <time>2024-02-24T11:52:00Z</time>
      </trkpt>
      <trkpt lat="46.16786" lon="6.55687">
        <ele>1459</ele>
        <time>2024-02-24T11:52:14Z</time>
      </trkpt>
      <trkpt lat="46.1677" lon="6.55662">
        <ele>1457</ele>
        <time>2024-02-24T11:52:20Z</time>
      </trkpt>
      <trkpt lat="46.16765" lon="6.55645">
        <ele>1456</ele>
        <time>2024-02-24T11:52:23Z</time>
      </trkpt>
      <trkpt lat="46.16695" lon="6.55502">
        <ele>1448</ele>
        <time>2024-02-24T11:52:53Z</time>
      </trkpt>
      <trkpt lat="46.16688" lon="6.55493">
        <ele>1448</ele>
        <time>2024-02-24T11:52:56Z</time>
      </trkpt>
      <trkpt lat="46.1668" lon="6.55485">
        <ele>1448</ele>
        <time>2024-02-24T11:53:00Z</time>
      </trkpt>
      <trkpt lat="46.16624" lon="6.55394">
        <ele>1443</ele>
        <time>2024-02-24T11:53:30Z</time>
      </trkpt>
      <trkpt lat="46.16545" lon="6.55308">
        <ele>1439</ele>
        <time>2024-02-24T11:54:00Z</time>
      </trkpt>
      <trkpt lat="46.16521" lon="6.55283">
        <ele>1438</ele>
        <time>2024-02-24T11:54:09Z</time>
      </trkpt>
      <trkpt lat="46.16498" lon="6.55272">
        <ele>1436</ele>
        <time>2024-02-24T11:54:15Z</time>
      </trkpt>
      <trkpt lat="46.16491" lon="6.55264">
        <ele>1434</ele>
        <time>2024-02-24T11:54:18Z</time>
      </trkpt>
      <trkpt lat="46.16483" lon="6.55257">
        <ele>1434</ele>
        <time>2024-02-24T11:54:21Z</time>
      </trkpt>
      <trkpt lat="46.1641" lon="6.55246">
        <ele>1431</ele>
        <time>2024-02-24T11:54:51Z</time>
      </trkpt>
      <trkpt lat="46.1639" lon="6.55244">
        <ele>1431</ele>
        <time>2024-02-24T11:54:59Z</time>
      </trkpt>
      <trkpt lat="46.16383" lon="6.55239">
        <ele>1429</ele>
        <time>2024-02-24T11:56:18Z</time>
      </trkpt>
    </trkseg>
  </trk>
</gpx>